sensor_id;sensor_type;location;lat;lon;timestamp;P1;durP1;ratioP1;P2;durP2;ratioP2
13090;SDS011;6611;52.604;13.438;2022-12-18T00:04:15;17.37;;;7.87;;
13090;SDS011;6611;52.604;13.438;2022-12-18T00:09:22;17.00;;;8.63;;
13090;SDS011;6611;52.604;13.438;2022-12-18T00:14:24;16.37;;;7.43;;
13090;SDS011;6611;52.604;13.438;2022-12-18T00:19:26;18.50;;;8.27;;
13090;SDS011;6611;52.604;13.438;2022-12-18T00:24:30;15.43;;;7.03;;
13090;SDS011;6611;52.604;13.438;2022-12-18T00:29:31;13.73;;;6.80;;
13090;SDS011;6611;52.604;13.438;2022-12-18T00:34:34;16.63;;;6.80;;
13090;SDS011;6611;52.604;13.438;2022-12-18T00:39:37;16.93;;;7.40;;
13090;SDS011;6611;52.604;13.438;2022-12-18T00:44:39;13.60;;;6.77;;
13090;SDS011;6611;52.604;13.438;2022-12-18T00:49:41;14.10;;;6.83;;
13090;SDS011;6611;52.604;13.438;2022-12-18T00:54:44;19.50;;;7.20;;
13090;SDS011;6611;52.604;13.438;2022-12-18T00:59:46;17.43;;;6.50;;
13090;SDS011;6611;52.604;13.438;2022-12-18T01:04:48;14.57;;;7.87;;
13090;SDS011;6611;52.604;13.438;2022-12-18T01:09:51;12.20;;;5.23;;
13090;SDS011;6611;52.604;13.438;2022-12-18T01:14:53;10.23;;;5.57;;
13090;SDS011;6611;52.604;13.438;2022-12-18T01:19:54;17.77;;;8.23;;
13090;SDS011;6611;52.604;13.438;2022-12-18T01:24:57;15.57;;;7.63;;
13090;SDS011;6611;52.604;13.438;2022-12-18T01:29:59;13.23;;;7.40;;
13090;SDS011;6611;52.604;13.438;2022-12-18T01:35:01;14.40;;;6.73;;
13090;SDS011;6611;52.604;13.438;2022-12-18T01:40:05;14.63;;;6.70;;
13090;SDS011;6611;52.604;13.438;2022-12-18T01:45:21;13.63;;;7.13;;
13090;SDS011;6611;52.604;13.438;2022-12-18T01:50:27;13.83;;;6.90;;
13090;SDS011;6611;52.604;13.438;2022-12-18T01:55:35;13.93;;;7.03;;
13090;SDS011;6611;52.604;13.438;2022-12-18T02:00:40;14.00;;;7.20;;
13090;SDS011;6611;52.604;13.438;2022-12-18T02:05:44;14.27;;;7.20;;
13090;SDS011;6611;52.604;13.438;2022-12-18T02:10:54;14.00;;;6.83;;
13090;SDS011;6611;52.604;13.438;2022-12-18T02:16:06;16.77;;;6.63;;
13090;SDS011;6611;52.604;13.438;2022-12-18T02:21:17;13.57;;;7.33;;
13090;SDS011;6611;52.604;13.438;2022-12-18T02:26:28;21.70;;;8.57;;
13090;SDS011;6611;52.604;13.438;2022-12-18T02:31:36;14.20;;;6.37;;
13090;SDS011;6611;52.604;13.438;2022-12-18T02:36:42;17.93;;;7.33;;
13090;SDS011;6611;52.604;13.438;2022-12-18T02:41:48;14.23;;;6.77;;
13090;SDS011;6611;52.604;13.438;2022-12-18T02:46:51;15.17;;;7.23;;
13090;SDS011;6611;52.604;13.438;2022-12-18T02:51:55;19.23;;;6.80;;
13090;SDS011;6611;52.604;13.438;2022-12-18T02:57:05;14.97;;;6.33;;
13090;SDS011;6611;52.604;13.438;2022-12-18T03:02:17;12.03;;;6.77;;
13090;SDS011;6611;52.604;13.438;2022-12-18T03:07:25;22.63;;;7.70;;
13090;SDS011;6611;52.604;13.438;2022-12-18T03:12:35;19.33;;;9.17;;
13090;SDS011;6611;52.604;13.438;2022-12-18T03:17:42;23.80;;;8.77;;
13090;SDS011;6611;52.604;13.438;2022-12-18T03:22:48;23.63;;;10.10;;
13090;SDS011;6611;52.604;13.438;2022-12-18T03:27:55;25.23;;;10.37;;
13090;SDS011;6611;52.604;13.438;2022-12-18T03:33:01;25.90;;;10.53;;
13090;SDS011;6611;52.604;13.438;2022-12-18T03:38:08;30.90;;;11.80;;
13090;SDS011;6611;52.604;13.438;2022-12-18T03:43:14;22.90;;;10.80;;
13090;SDS011;6611;52.604;13.438;2022-12-18T03:48:24;29.20;;;11.77;;
13090;SDS011;6611;52.604;13.438;2022-12-18T03:53:32;25.57;;;10.43;;
13090;SDS011;6611;52.604;13.438;2022-12-18T03:58:39;28.63;;;11.40;;
13090;SDS011;6611;52.604;13.438;2022-12-18T04:03:43;19.73;;;8.47;;
13090;SDS011;6611;52.604;13.438;2022-12-18T04:08:47;17.97;;;8.70;;
13090;SDS011;6611;52.604;13.438;2022-12-18T04:13:50;19.23;;;8.80;;
13090;SDS011;6611;52.604;13.438;2022-12-18T04:18:57;18.50;;;8.27;;
13090;SDS011;6611;52.604;13.438;2022-12-18T04:23:59;21.67;;;9.10;;
13090;SDS011;6611;52.604;13.438;2022-12-18T04:29:02;16.40;;;8.10;;
13090;SDS011;6611;52.604;13.438;2022-12-18T04:34:04;24.07;;;9.27;;
13090;SDS011;6611;52.604;13.438;2022-12-18T04:39:06;21.90;;;9.57;;
13090;SDS011;6611;52.604;13.438;2022-12-18T04:44:09;16.70;;;7.13;;
13090;SDS011;6611;52.604;13.438;2022-12-18T04:49:11;25.53;;;10.63;;
13090;SDS011;6611;52.604;13.438;2022-12-18T04:54:12;22.60;;;8.17;;
13090;SDS011;6611;52.604;13.438;2022-12-18T04:59:15;17.70;;;8.13;;
13090;SDS011;6611;52.604;13.438;2022-12-18T05:04:17;17.13;;;8.43;;
13090;SDS011;6611;52.604;13.438;2022-12-18T05:09:19;14.63;;;8.00;;
13090;SDS011;6611;52.604;13.438;2022-12-18T05:14:22;15.20;;;7.60;;
13090;SDS011;6611;52.604;13.438;2022-12-18T05:19:24;19.10;;;7.87;;
13090;SDS011;6611;52.604;13.438;2022-12-18T05:24:25;13.33;;;7.20;;
13090;SDS011;6611;52.604;13.438;2022-12-18T05:29:28;15.00;;;7.17;;
13090;SDS011;6611;52.604;13.438;2022-12-18T05:34:30;16.03;;;7.90;;
13090;SDS011;6611;52.604;13.438;2022-12-18T05:39:33;11.53;;;6.73;;
13090;SDS011;6611;52.604;13.438;2022-12-18T05:44:36;14.10;;;5.30;;
13090;SDS011;6611;52.604;13.438;2022-12-18T05:49:38;12.50;;;6.97;;
13090;SDS011;6611;52.604;13.438;2022-12-18T05:54:39;17.30;;;8.33;;
13090;SDS011;6611;52.604;13.438;2022-12-18T05:59:42;19.87;;;8.10;;
13090;SDS011;6611;52.604;13.438;2022-12-18T06:04:44;13.90;;;7.70;;
13090;SDS011;6611;52.604;13.438;2022-12-18T06:09:46;16.33;;;7.07;;
13090;SDS011;6611;52.604;13.438;2022-12-18T06:14:49;23.87;;;9.33;;
13090;SDS011;6611;52.604;13.438;2022-12-18T06:19:50;21.00;;;7.97;;
13090;SDS011;6611;52.604;13.438;2022-12-18T06:24:52;22.90;;;8.60;;
13090;SDS011;6611;52.604;13.438;2022-12-18T06:29:55;23.30;;;8.30;;
13090;SDS011;6611;52.604;13.438;2022-12-18T06:34:57;16.57;;;7.83;;
13090;SDS011;6611;52.604;13.438;2022-12-18T06:39:59;19.03;;;8.10;;
13090;SDS011;6611;52.604;13.438;2022-12-18T06:45:02;17.70;;;8.73;;
13090;SDS011;6611;52.604;13.438;2022-12-18T06:50:05;24.00;;;9.20;;
13090;SDS011;6611;52.604;13.438;2022-12-18T06:55:07;21.60;;;9.40;;
13090;SDS011;6611;52.604;13.438;2022-12-18T07:00:11;19.10;;;8.47;;
13090;SDS011;6611;52.604;13.438;2022-12-18T07:05:13;19.43;;;8.50;;
13090;SDS011;6611;52.604;13.438;2022-12-18T07:10:15;16.03;;;7.80;;
13090;SDS011;6611;52.604;13.438;2022-12-18T07:15:18;21.67;;;7.90;;
13090;SDS011;6611;52.604;13.438;2022-12-18T07:20:20;22.10;;;8.63;;
13090;SDS011;6611;52.604;13.438;2022-12-18T07:25:22;24.50;;;9.30;;
13090;SDS011;6611;52.604;13.438;2022-12-18T07:30:25;19.23;;;8.33;;
13090;SDS011;6611;52.604;13.438;2022-12-18T07:35:26;20.10;;;8.80;;
13090;SDS011;6611;52.604;13.438;2022-12-18T07:40:28;15.13;;;8.03;;
13090;SDS011;6611;52.604;13.438;2022-12-18T07:45:31;23.23;;;10.20;;
13090;SDS011;6611;52.604;13.438;2022-12-18T07:50:33;19.37;;;9.00;;
13090;SDS011;6611;52.604;13.438;2022-12-18T07:55:34;16.87;;;8.47;;
13090;SDS011;6611;52.604;13.438;2022-12-18T08:00:37;22.87;;;8.13;;
13090;SDS011;6611;52.604;13.438;2022-12-18T08:05:39;21.27;;;8.53;;
13090;SDS011;6611;52.604;13.438;2022-12-18T08:10:41;18.00;;;7.57;;
13090;SDS011;6611;52.604;13.438;2022-12-18T08:15:44;20.33;;;8.53;;
13090;SDS011;6611;52.604;13.438;2022-12-18T08:20:45;16.90;;;7.87;;
13090;SDS011;6611;52.604;13.438;2022-12-18T08:25:47;20.53;;;8.57;;
13090;SDS011;6611;52.604;13.438;2022-12-18T08:30:52;14.77;;;8.23;;
13090;SDS011;6611;52.604;13.438;2022-12-18T08:35:54;36.60;;;17.47;;
13090;SDS011;6611;52.604;13.438;2022-12-18T08:40:58;25.40;;;12.47;;
13090;SDS011;6611;52.604;13.438;2022-12-18T08:46:02;17.30;;;8.37;;
13090;SDS011;6611;52.604;13.438;2022-12-18T08:51:03;18.43;;;8.67;;
13090;SDS011;6611;52.604;13.438;2022-12-18T08:56:05;18.83;;;7.53;;
13090;SDS011;6611;52.604;13.438;2022-12-18T09:01:10;16.63;;;7.07;;
13090;SDS011;6611;52.604;13.438;2022-12-18T09:06:13;16.33;;;6.17;;
13090;SDS011;6611;52.604;13.438;2022-12-18T09:11:19;13.87;;;6.93;;
13090;SDS011;6611;52.604;13.438;2022-12-18T09:16:23;16.80;;;9.17;;
13090;SDS011;6611;52.604;13.438;2022-12-18T09:21:27;18.07;;;7.33;;
13090;SDS011;6611;52.604;13.438;2022-12-18T09:26:30;16.43;;;7.67;;
13090;SDS011;6611;52.604;13.438;2022-12-18T09:31:36;16.03;;;7.37;;
13090;SDS011;6611;52.604;13.438;2022-12-18T09:36:39;23.10;;;10.13;;
13090;SDS011;6611;52.604;13.438;2022-12-18T09:41:42;17.27;;;6.40;;
13090;SDS011;6611;52.604;13.438;2022-12-18T09:46:49;16.07;;;8.10;;
13090;SDS011;6611;52.604;13.438;2022-12-18T09:51:56;11.67;;;7.40;;
13090;SDS011;6611;52.604;13.438;2022-12-18T09:57:02;17.17;;;6.83;;
13090;SDS011;6611;52.604;13.438;2022-12-18T10:02:13;11.00;;;6.43;;
13090;SDS011;6611;52.604;13.438;2022-12-18T10:07:17;16.37;;;7.80;;
13090;SDS011;6611;52.604;13.438;2022-12-18T10:12:25;13.37;;;7.03;;
13090;SDS011;6611;52.604;13.438;2022-12-18T10:17:37;16.63;;;7.60;;
13090;SDS011;6611;52.604;13.438;2022-12-18T10:22:49;14.97;;;7.50;;
13090;SDS011;6611;52.604;13.438;2022-12-18T10:27:57;13.63;;;5.93;;
13090;SDS011;6611;52.604;13.438;2022-12-18T10:33:03;15.53;;;7.83;;
13090;SDS011;6611;52.604;13.438;2022-12-18T10:38:06;12.27;;;6.90;;
13090;SDS011;6611;52.604;13.438;2022-12-18T10:43:23;19.00;;;7.40;;
13090;SDS011;6611;52.604;13.438;2022-12-18T10:48:28;23.43;;;8.40;;
13090;SDS011;6611;52.604;13.438;2022-12-18T10:53:32;16.00;;;8.97;;
13090;SDS011;6611;52.604;13.438;2022-12-18T10:58:36;21.10;;;10.37;;
13090;SDS011;6611;52.604;13.438;2022-12-18T11:03:41;18.73;;;8.37;;
13090;SDS011;6611;52.604;13.438;2022-12-18T11:08:46;18.00;;;7.77;;
13090;SDS011;6611;52.604;13.438;2022-12-18T11:14:00;14.20;;;7.93;;
13090;SDS011;6611;52.604;13.438;2022-12-18T11:19:12;14.23;;;7.27;;
13090;SDS011;6611;52.604;13.438;2022-12-18T11:24:23;15.17;;;7.03;;
13090;SDS011;6611;52.604;13.438;2022-12-18T11:29:33;20.10;;;8.27;;
13090;SDS011;6611;52.604;13.438;2022-12-18T11:34:37;18.63;;;7.83;;
13090;SDS011;6611;52.604;13.438;2022-12-18T11:39:40;12.53;;;6.73;;
13090;SDS011;6611;52.604;13.438;2022-12-18T11:44:46;14.40;;;6.60;;
13090;SDS011;6611;52.604;13.438;2022-12-18T11:49:52;13.83;;;6.83;;
13090;SDS011;6611;52.604;13.438;2022-12-18T11:54:58;13.23;;;6.70;;
13090;SDS011;6611;52.604;13.438;2022-12-18T12:00:04;14.83;;;7.23;;
13090;SDS011;6611;52.604;13.438;2022-12-18T12:05:19;10.53;;;5.20;;
13090;SDS011;6611;52.604;13.438;2022-12-18T12:10:34;12.00;;;6.73;;
13090;SDS011;6611;52.604;13.438;2022-12-18T12:15:44;11.97;;;6.70;;
13090;SDS011;6611;52.604;13.438;2022-12-18T12:20:56;10.60;;;6.27;;
13090;SDS011;6611;52.604;13.438;2022-12-18T12:26:06;10.17;;;6.57;;
13090;SDS011;6611;52.604;13.438;2022-12-18T12:31:11;11.63;;;6.57;;
13090;SDS011;6611;52.604;13.438;2022-12-18T12:36:22;12.23;;;6.30;;
13090;SDS011;6611;52.604;13.438;2022-12-18T12:41:33;14.83;;;6.70;;
13090;SDS011;6611;52.604;13.438;2022-12-18T12:46:58;11.47;;;6.90;;
13090;SDS011;6611;52.604;13.438;2022-12-18T12:52:10;10.13;;;6.33;;
13090;SDS011;6611;52.604;13.438;2022-12-18T12:57:17;10.03;;;5.70;;
13090;SDS011;6611;52.604;13.438;2022-12-18T13:02:24;16.13;;;6.93;;
13090;SDS011;6611;52.604;13.438;2022-12-18T13:07:35;14.70;;;7.20;;
13090;SDS011;6611;52.604;13.438;2022-12-18T13:12:51;9.93;;;6.53;;
13090;SDS011;6611;52.604;13.438;2022-12-18T13:18:03;11.93;;;7.40;;
13090;SDS011;6611;52.604;13.438;2022-12-18T13:23:25;11.63;;;6.10;;
13090;SDS011;6611;52.604;13.438;2022-12-18T13:33:55;13.43;;;6.80;;
13090;SDS011;6611;52.604;13.438;2022-12-18T13:44:38;10.20;;;5.17;;
13090;SDS011;6611;52.604;13.438;2022-12-18T13:49:41;12.33;;;5.77;;
13090;SDS011;6611;52.604;13.438;2022-12-18T13:54:47;10.37;;;5.63;;
13090;SDS011;6611;52.604;13.438;2022-12-18T13:59:53;10.07;;;5.80;;
13090;SDS011;6611;52.604;13.438;2022-12-18T14:04:55;17.83;;;7.20;;
13090;SDS011;6611;52.604;13.438;2022-12-18T14:09:59;12.10;;;7.20;;
13090;SDS011;6611;52.604;13.438;2022-12-18T14:15:02;8.00;;;4.87;;
13090;SDS011;6611;52.604;13.438;2022-12-18T14:20:12;15.53;;;7.90;;
13090;SDS011;6611;52.604;13.438;2022-12-18T14:25:17;9.83;;;5.93;;
13090;SDS011;6611;52.604;13.438;2022-12-18T14:30:25;15.03;;;7.03;;
13090;SDS011;6611;52.604;13.438;2022-12-18T14:35:27;11.87;;;6.70;;
13090;SDS011;6611;52.604;13.438;2022-12-18T14:40:31;14.53;;;7.13;;
13090;SDS011;6611;52.604;13.438;2022-12-18T14:45:33;12.73;;;6.93;;
13090;SDS011;6611;52.604;13.438;2022-12-18T14:50:41;14.10;;;7.57;;
13090;SDS011;6611;52.604;13.438;2022-12-18T14:55:45;7.37;;;4.83;;
13090;SDS011;6611;52.604;13.438;2022-12-18T15:00:49;9.87;;;6.07;;
13090;SDS011;6611;52.604;13.438;2022-12-18T15:05:51;5.93;;;4.73;;
13090;SDS011;6611;52.604;13.438;2022-12-18T15:10:54;10.67;;;6.57;;
13090;SDS011;6611;52.604;13.438;2022-12-18T15:15:57;9.07;;;5.63;;
13090;SDS011;6611;52.604;13.438;2022-12-18T15:21:07;11.70;;;6.60;;
13090;SDS011;6611;52.604;13.438;2022-12-18T15:26:13;9.00;;;6.27;;
13090;SDS011;6611;52.604;13.438;2022-12-18T15:31:23;14.17;;;8.47;;
13090;SDS011;6611;52.604;13.438;2022-12-18T15:36:29;11.50;;;7.63;;
13090;SDS011;6611;52.604;13.438;2022-12-18T15:41:33;11.93;;;8.17;;
13090;SDS011;6611;52.604;13.438;2022-12-18T15:46:36;6.47;;;4.10;;
13090;SDS011;6611;52.604;13.438;2022-12-18T15:51:37;10.53;;;6.83;;
13090;SDS011;6611;52.604;13.438;2022-12-18T15:56:41;10.60;;;7.20;;
13090;SDS011;6611;52.604;13.438;2022-12-18T16:02:00;10.00;;;6.00;;
13090;SDS011;6611;52.604;13.438;2022-12-18T16:07:02;9.07;;;6.07;;
13090;SDS011;6611;52.604;13.438;2022-12-18T16:12:05;11.50;;;6.17;;
13090;SDS011;6611;52.604;13.438;2022-12-18T16:17:11;10.57;;;6.47;;
13090;SDS011;6611;52.604;13.438;2022-12-18T16:22:17;11.93;;;8.80;;
13090;SDS011;6611;52.604;13.438;2022-12-18T16:27:23;11.90;;;6.20;;
13090;SDS011;6611;52.604;13.438;2022-12-18T16:32:25;9.47;;;5.57;;
13090;SDS011;6611;52.604;13.438;2022-12-18T16:37:27;9.83;;;6.17;;
13090;SDS011;6611;52.604;13.438;2022-12-18T16:42:30;10.30;;;7.00;;
13090;SDS011;6611;52.604;13.438;2022-12-18T16:47:32;11.70;;;7.00;;
13090;SDS011;6611;52.604;13.438;2022-12-18T16:52:34;16.73;;;8.40;;
13090;SDS011;6611;52.604;13.438;2022-12-18T16:57:37;14.03;;;7.53;;
13090;SDS011;6611;52.604;13.438;2022-12-18T17:02:39;12.03;;;5.60;;
13090;SDS011;6611;52.604;13.438;2022-12-18T17:07:40;12.63;;;7.20;;
13090;SDS011;6611;52.604;13.438;2022-12-18T17:12:43;10.67;;;6.40;;
13090;SDS011;6611;52.604;13.438;2022-12-18T17:17:45;16.27;;;7.57;;
13090;SDS011;6611;52.604;13.438;2022-12-18T17:22:46;11.57;;;6.57;;
13090;SDS011;6611;52.604;13.438;2022-12-18T17:27:50;11.67;;;7.20;;
13090;SDS011;6611;52.604;13.438;2022-12-18T17:32:52;12.43;;;6.70;;
13090;SDS011;6611;52.604;13.438;2022-12-18T17:37:54;15.63;;;8.10;;
13090;SDS011;6611;52.604;13.438;2022-12-18T17:42:57;15.57;;;8.77;;
13090;SDS011;6611;52.604;13.438;2022-12-18T17:47:59;16.67;;;9.50;;
13090;SDS011;6611;52.604;13.438;2022-12-18T17:53:00;18.23;;;10.83;;
13090;SDS011;6611;52.604;13.438;2022-12-18T17:58:04;17.63;;;10.27;;
13090;SDS011;6611;52.604;13.438;2022-12-18T18:03:06;13.20;;;8.87;;
13090;SDS011;6611;52.604;13.438;2022-12-18T18:08:07;21.57;;;12.87;;
13090;SDS011;6611;52.604;13.438;2022-12-18T18:13:15;15.57;;;9.40;;
13090;SDS011;6611;52.604;13.438;2022-12-18T18:18:36;17.23;;;8.67;;
13090;SDS011;6611;52.604;13.438;2022-12-18T18:23:38;16.40;;;8.97;;
13090;SDS011;6611;52.604;13.438;2022-12-18T18:28:41;16.83;;;9.33;;
13090;SDS011;6611;52.604;13.438;2022-12-18T18:33:43;16.07;;;9.67;;
13090;SDS011;6611;52.604;13.438;2022-12-18T18:38:45;14.67;;;9.40;;
13090;SDS011;6611;52.604;13.438;2022-12-18T18:43:48;16.67;;;8.97;;
13090;SDS011;6611;52.604;13.438;2022-12-18T18:48:49;13.10;;;8.07;;
13090;SDS011;6611;52.604;13.438;2022-12-18T18:53:52;16.63;;;8.93;;
13090;SDS011;6611;52.604;13.438;2022-12-18T18:58:55;19.67;;;9.73;;
13090;SDS011;6611;52.604;13.438;2022-12-18T19:03:57;18.60;;;8.97;;
13090;SDS011;6611;52.604;13.438;2022-12-18T19:09:00;15.27;;;9.33;;
13090;SDS011;6611;52.604;13.438;2022-12-18T19:14:06;19.87;;;9.90;;
13090;SDS011;6611;52.604;13.438;2022-12-18T19:19:09;18.17;;;8.20;;
13090;SDS011;6611;52.604;13.438;2022-12-18T19:24:11;23.07;;;9.10;;
13090;SDS011;6611;52.604;13.438;2022-12-18T19:29:15;19.07;;;10.40;;
13090;SDS011;6611;52.604;13.438;2022-12-18T19:34:16;17.87;;;9.33;;
13090;SDS011;6611;52.604;13.438;2022-12-18T19:39:18;14.80;;;8.97;;
13090;SDS011;6611;52.604;13.438;2022-12-18T19:44:22;18.67;;;9.23;;
13090;SDS011;6611;52.604;13.438;2022-12-18T19:49:23;19.17;;;9.03;;
13090;SDS011;6611;52.604;13.438;2022-12-18T19:54:25;17.33;;;8.83;;
13090;SDS011;6611;52.604;13.438;2022-12-18T19:59:28;19.37;;;9.43;;
13090;SDS011;6611;52.604;13.438;2022-12-18T20:04:30;17.93;;;9.20;;
13090;SDS011;6611;52.604;13.438;2022-12-18T20:09:32;15.60;;;8.00;;
13090;SDS011;6611;52.604;13.438;2022-12-18T20:14:36;20.63;;;10.13;;
13090;SDS011;6611;52.604;13.438;2022-12-18T20:19:38;20.60;;;10.40;;
13090;SDS011;6611;52.604;13.438;2022-12-18T20:24:41;20.13;;;9.83;;
13090;SDS011;6611;52.604;13.438;2022-12-18T20:29:44;16.77;;;9.33;;
13090;SDS011;6611;52.604;13.438;2022-12-18T20:34:47;17.73;;;8.47;;
13090;SDS011;6611;52.604;13.438;2022-12-18T20:39:49;21.00;;;8.50;;
13090;SDS011;6611;52.604;13.438;2022-12-18T20:44:53;16.27;;;9.03;;
13090;SDS011;6611;52.604;13.438;2022-12-18T20:49:55;16.00;;;9.37;;
13090;SDS011;6611;52.604;13.438;2022-12-18T20:54:56;16.17;;;8.73;;
13090;SDS011;6611;52.604;13.438;2022-12-18T20:59:59;20.47;;;9.03;;
13090;SDS011;6611;52.604;13.438;2022-12-18T21:05:01;24.83;;;10.47;;
13090;SDS011;6611;52.604;13.438;2022-12-18T21:10:03;18.17;;;9.23;;
13090;SDS011;6611;52.604;13.438;2022-12-18T21:15:08;20.77;;;9.93;;
13090;SDS011;6611;52.604;13.438;2022-12-18T21:20:11;19.90;;;8.93;;
13090;SDS011;6611;52.604;13.438;2022-12-18T21:25:13;23.00;;;9.77;;
13090;SDS011;6611;52.604;13.438;2022-12-18T21:30:17;17.60;;;8.93;;
13090;SDS011;6611;52.604;13.438;2022-12-18T21:35:18;19.37;;;9.47;;
13090;SDS011;6611;52.604;13.438;2022-12-18T21:40:20;17.03;;;9.47;;
13090;SDS011;6611;52.604;13.438;2022-12-18T21:45:23;21.43;;;9.20;;
13090;SDS011;6611;52.604;13.438;2022-12-18T21:50:25;16.30;;;9.43;;
13090;SDS011;6611;52.604;13.438;2022-12-18T21:55:26;17.27;;;9.50;;
13090;SDS011;6611;52.604;13.438;2022-12-18T22:00:30;14.73;;;8.53;;
13090;SDS011;6611;52.604;13.438;2022-12-18T22:05:32;21.20;;;9.87;;
13090;SDS011;6611;52.604;13.438;2022-12-18T22:10:33;17.43;;;7.20;;
13090;SDS011;6611;52.604;13.438;2022-12-18T22:15:37;16.27;;;8.40;;
13090;SDS011;6611;52.604;13.438;2022-12-18T22:20:39;18.17;;;9.30;;
13090;SDS011;6611;52.604;13.438;2022-12-18T22:25:40;14.73;;;7.93;;
13090;SDS011;6611;52.604;13.438;2022-12-18T22:30:43;15.10;;;8.10;;
13090;SDS011;6611;52.604;13.438;2022-12-18T22:35:45;15.80;;;7.67;;
13090;SDS011;6611;52.604;13.438;2022-12-18T22:40:47;17.00;;;7.57;;
13090;SDS011;6611;52.604;13.438;2022-12-18T22:45:50;16.87;;;7.97;;
13090;SDS011;6611;52.604;13.438;2022-12-18T22:50:51;16.37;;;8.03;;
13090;SDS011;6611;52.604;13.438;2022-12-18T22:55:58;9.90;;;6.53;;
13090;SDS011;6611;52.604;13.438;2022-12-18T23:01:02;16.50;;;7.70;;
13090;SDS011;6611;52.604;13.438;2022-12-18T23:06:04;15.63;;;8.17;;
13090;SDS011;6611;52.604;13.438;2022-12-18T23:11:07;9.80;;;6.33;;
13090;SDS011;6611;52.604;13.438;2022-12-18T23:16:11;13.43;;;6.53;;
13090;SDS011;6611;52.604;13.438;2022-12-18T23:21:16;13.17;;;7.30;;
13090;SDS011;6611;52.604;13.438;2022-12-18T23:26:20;12.23;;;6.60;;
13090;SDS011;6611;52.604;13.438;2022-12-18T23:31:25;13.40;;;6.30;;
13090;SDS011;6611;52.604;13.438;2022-12-18T23:36:28;15.07;;;8.47;;
13090;SDS011;6611;52.604;13.438;2022-12-18T23:41:30;15.97;;;7.27;;
13090;SDS011;6611;52.604;13.438;2022-12-18T23:46:34;13.83;;;7.27;;
13090;SDS011;6611;52.604;13.438;2022-12-18T23:51:36;11.00;;;5.90;;
13090;SDS011;6611;52.604;13.438;2022-12-18T23:56:38;13.90;;;7.23;;
